createdAt,value
2018-03-29T00:01:25.706Z,38.73
2018-03-29T00:03:54.116Z,30.03
2018-03-29T00:06:21.818Z,60.03
2018-03-29T00:08:49.404Z,47.87
2018-03-29T00:11:17.433Z,39.90
2018-03-29T00:13:45.752Z,44.07
2018-03-29T00:16:13.513Z,32.40
2018-03-29T00:18:41.413Z,33.53
2018-03-29T00:21:08.961Z,32.30
2018-03-29T00:23:36.698Z,29.70
2018-03-29T00:26:04.288Z,28.40
2018-03-29T00:28:31.889Z,28.47
2018-03-29T00:30:59.755Z,29.70
2018-03-29T00:33:27.514Z,28.80
2018-03-29T00:35:55.189Z,29.13
2018-03-29T00:38:22.784Z,27.70
2018-03-29T00:40:50.557Z,30.07
2018-03-29T00:43:18.178Z,31.73
2018-03-29T00:45:45.854Z,26.03
2018-03-29T00:48:13.538Z,28.43
2018-03-29T00:50:41.399Z,29.63
2018-03-29T00:53:20.986Z,28.97
2018-03-29T00:55:48.557Z,31.43
2018-03-29T00:58:16.102Z,30.27
2018-03-29T01:00:44.453Z,26.87
2018-03-29T01:03:12.005Z,28.17
2018-03-29T01:05:39.673Z,26.87
2018-03-29T01:08:07.260Z,25.93
2018-03-29T01:10:34.805Z,25.73
2018-03-29T01:13:03.115Z,26.57
2018-03-29T01:15:30.954Z,26.03
2018-03-29T01:17:59.265Z,26.53
2018-03-29T01:20:26.810Z,26.63
2018-03-29T01:22:54.503Z,26.83
2018-03-29T01:25:22.101Z,29.30
2018-03-29T01:27:49.641Z,27.63
2018-03-29T01:30:17.229Z,27.47
2018-03-29T01:32:44.906Z,27.67
2018-03-29T01:35:12.757Z,25.60
2018-03-29T01:37:40.489Z,28.90
2018-03-29T01:40:08.130Z,27.60
2018-03-29T01:42:35.737Z,25.97
2018-03-29T01:45:03.493Z,26.67
2018-03-29T01:47:31.803Z,29.40
2018-03-29T01:49:59.347Z,33.13
2018-03-29T01:52:26.926Z,27.17
2018-03-29T01:54:54.657Z,28.40
2018-03-29T01:57:22.282Z,26.87
2018-03-29T01:59:50.886Z,27.07
2018-03-29T02:02:19.277Z,26.57
2018-03-29T02:04:46.942Z,29.77
2018-03-29T02:07:14.523Z,31.50
2018-03-29T02:09:42.269Z,35.67
2018-03-29T02:12:09.973Z,33.67
2018-03-29T02:14:37.910Z,34.27
2018-03-29T02:17:05.459Z,36.37
2018-03-29T02:19:33.170Z,33.90
2018-03-29T02:22:00.867Z,41.07
2018-03-29T02:24:29.173Z,40.27
2018-03-29T02:26:56.998Z,41.77
2018-03-29T02:29:26.501Z,83.40
2018-03-29T02:31:54.817Z,54.30
2018-03-29T02:34:22.377Z,57.70
2018-03-29T02:36:49.950Z,44.53
2018-03-29T02:39:17.930Z,38.87
2018-03-29T02:41:45.542Z,38.17
2018-03-29T02:44:13.251Z,33.80
2018-03-29T02:46:40.928Z,37.80
2018-03-29T02:49:08.490Z,28.07
2018-03-29T02:51:36.238Z,35.20
2018-03-29T02:54:03.785Z,32.57
2018-03-29T02:56:31.326Z,23.07
2018-03-29T02:58:59.012Z,16.23
2018-03-29T03:01:26.558Z,16.07
2018-03-29T03:03:54.113Z,12.93
2018-03-29T03:06:21.976Z,12.60
2018-03-29T03:08:49.526Z,15.80
2018-03-29T03:11:17.313Z,13.20
2018-03-29T03:13:45.010Z,13.13
2018-03-29T03:16:13.325Z,12.90
2018-03-29T03:18:40.880Z,12.37
2018-03-29T03:21:08.473Z,13.77
2018-03-29T03:23:36.013Z,15.27
2018-03-29T03:26:03.687Z,14.53
2018-03-29T03:28:31.382Z,10.93
2018-03-29T03:30:59.985Z,15.73
2018-03-29T03:33:27.538Z,13.97
2018-03-29T03:35:55.346Z,13.87
2018-03-29T03:38:23.221Z,10.93
2018-03-29T03:40:51.085Z,12.57
2018-03-29T03:43:18.667Z,12.70
2018-03-29T03:45:46.992Z,9.93
2018-03-29T03:48:14.538Z,15.70
2018-03-29T03:50:42.726Z,13.53
2018-03-29T03:53:10.645Z,15.57
2018-03-29T03:55:38.955Z,11.67
2018-03-29T03:58:06.570Z,13.80
2018-03-29T04:00:34.426Z,13.87
2018-03-29T04:03:02.017Z,15.50
2018-03-29T04:05:29.951Z,12.47
2018-03-29T04:07:57.606Z,13.27
2018-03-29T04:10:25.301Z,14.27
2018-03-29T04:12:53.838Z,13.40
2018-03-29T04:15:21.397Z,15.17
2018-03-29T04:17:48.941Z,14.70
2018-03-29T04:20:16.733Z,14.77
2018-03-29T04:22:44.276Z,20.67
2018-03-29T04:25:11.828Z,15.73
2018-03-29T04:27:39.490Z,15.93
2018-03-29T04:30:07.041Z,21.97
2018-03-29T04:32:34.786Z,17.90
2018-03-29T04:35:02.374Z,18.13
2018-03-29T04:37:30.298Z,24.33
2018-03-29T04:39:57.837Z,15.53
2018-03-29T04:42:26.342Z,17.97
2018-03-29T04:44:54.158Z,15.50
2018-03-29T04:47:21.975Z,15.20
2018-03-29T04:49:49.689Z,18.13
2018-03-29T04:52:17.244Z,16.73
2018-03-29T04:54:44.960Z,13.93
2018-03-29T04:57:12.919Z,18.90
2018-03-29T04:59:40.681Z,16.90
2018-03-29T05:02:08.777Z,16.70
2018-03-29T05:04:36.681Z,17.37
2018-03-29T05:07:04.333Z,18.10
2018-03-29T05:09:32.081Z,16.27
2018-03-29T05:11:59.682Z,16.83
2018-03-29T05:14:28.009Z,17.53
2018-03-29T05:16:55.793Z,20.00
2018-03-29T05:19:23.399Z,18.10
2018-03-29T05:21:51.461Z,16.83
2018-03-29T05:24:19.185Z,17.00
2018-03-29T05:26:49.561Z,17.47
2018-03-29T05:29:17.119Z,19.70
2018-03-29T05:31:44.778Z,21.37
2018-03-29T05:34:12.474Z,24.47
2018-03-29T05:36:40.114Z,39.40
2018-03-29T05:39:07.717Z,40.80
2018-03-29T05:41:35.501Z,36.67
2018-03-29T05:44:04.161Z,31.70
2018-03-29T05:46:31.714Z,25.40
2018-03-29T05:48:59.518Z,27.07
2018-03-29T05:51:27.906Z,24.63
2018-03-29T05:53:55.453Z,27.87
2018-03-29T05:56:24.141Z,18.00
2018-03-29T05:58:52.455Z,19.60
2018-03-29T06:01:20.032Z,17.87
2018-03-29T06:03:47.626Z,15.13
2018-03-29T06:06:15.317Z,17.97
2018-03-29T06:08:42.883Z,15.63
2018-03-29T06:11:11.085Z,15.73
2018-03-29T06:13:40.521Z,16.83
2018-03-29T06:16:08.085Z,15.20
2018-03-29T06:18:36.499Z,18.53
2018-03-29T06:21:04.981Z,16.10
2018-03-29T06:23:32.819Z,16.90
2018-03-29T06:26:00.402Z,16.33
2018-03-29T06:28:28.141Z,18.20
2018-03-29T06:30:55.689Z,16.60
2018-03-29T06:33:24.337Z,16.67
2018-03-29T06:35:52.134Z,18.57
2018-03-29T06:38:19.680Z,17.37
2018-03-29T06:40:48.045Z,17.20
2018-03-29T06:43:16.154Z,17.03
2018-03-29T06:45:43.835Z,17.20
2018-03-29T06:48:11.526Z,15.83
2018-03-29T06:50:39.186Z,33.00
2018-03-29T06:53:06.742Z,45.10
2018-03-29T06:55:34.510Z,36.53
2018-03-29T06:58:02.353Z,58.03
2018-03-29T07:00:29.986Z,37.23
2018-03-29T07:02:57.703Z,20.60
2018-03-29T07:05:25.261Z,17.87
2018-03-29T07:07:53.583Z,16.07
2018-03-29T07:10:21.163Z,14.63
2018-03-29T07:12:49.153Z,14.73
2018-03-29T07:15:16.849Z,12.73
2018-03-29T07:17:45.352Z,14.07
2018-03-29T07:20:12.906Z,13.30
2018-03-29T07:22:40.471Z,15.37
2018-03-29T07:25:08.048Z,22.50
2018-03-29T07:27:35.597Z,13.87
2018-03-29T07:30:03.334Z,13.40
2018-03-29T07:32:30.930Z,14.63
2018-03-29T07:34:58.740Z,13.13
2018-03-29T07:37:26.590Z,14.00
2018-03-29T07:39:54.294Z,20.40
2018-03-29T07:42:21.848Z,14.23
2018-03-29T07:44:49.536Z,12.67
2018-03-29T07:47:17.223Z,12.10
2018-03-29T07:49:44.846Z,14.27
2018-03-29T07:52:12.562Z,13.60
2018-03-29T07:54:40.173Z,14.53
2018-03-29T07:57:07.718Z,13.07
2018-03-29T07:59:35.300Z,13.13
2018-03-29T08:02:02.916Z,13.40
2018-03-29T08:04:30.478Z,17.90
2018-03-29T08:06:58.954Z,14.93
2018-03-29T08:09:27.342Z,15.30
2018-03-29T08:11:54.889Z,10.73
2018-03-29T08:14:23.207Z,13.60
2018-03-29T08:16:50.871Z,15.73
2018-03-29T08:19:18.447Z,14.67
2018-03-29T08:21:46.130Z,27.53
2018-03-29T08:24:13.684Z,14.80
2018-03-29T08:26:41.245Z,14.97
2018-03-29T08:29:08.807Z,15.73
2018-03-29T08:31:36.403Z,14.60
2018-03-29T08:34:03.993Z,10.63
2018-03-29T08:36:31.542Z,10.87
2018-03-29T08:38:59.343Z,14.63
2018-03-29T08:41:26.898Z,13.73
2018-03-29T08:43:54.454Z,12.10
2018-03-29T08:46:22.209Z,16.13
2018-03-29T08:48:50.123Z,13.63
2018-03-29T08:51:17.833Z,13.00
2018-03-29T08:53:45.429Z,13.13
2018-03-29T08:56:13.314Z,14.53
2018-03-29T08:58:40.869Z,12.50
2018-03-29T09:01:09.556Z,12.63
2018-03-29T09:03:37.172Z,10.37
2018-03-29T09:06:04.725Z,13.87
2018-03-29T09:08:32.310Z,11.50
2018-03-29T09:10:59.921Z,12.27
2018-03-29T09:13:27.466Z,14.63
2018-03-29T09:15:55.282Z,12.77
2018-03-29T09:18:22.898Z,11.70
2018-03-29T09:20:50.563Z,14.97
2018-03-29T09:23:18.253Z,12.53
2018-03-29T09:25:45.906Z,14.03
2018-03-29T09:28:13.733Z,12.27
2018-03-29T09:30:41.513Z,19.27
2018-03-29T09:33:09.347Z,14.20
2018-03-29T09:35:36.986Z,15.73
2018-03-29T09:38:04.598Z,13.83
2018-03-29T09:40:32.154Z,12.67
2018-03-29T09:43:00.125Z,15.63
2018-03-29T09:45:27.734Z,14.33
2018-03-29T09:47:55.576Z,13.30
2018-03-29T09:50:23.520Z,15.57
2018-03-29T09:52:51.117Z,13.70
2018-03-29T09:55:18.684Z,13.00
2018-03-29T09:57:47.581Z,13.47
2018-03-29T10:00:16.400Z,14.77
2018-03-29T10:02:49.864Z,15.67
2018-03-29T10:05:18.352Z,14.30
2018-03-29T10:07:46.772Z,11.97
2018-03-29T10:10:15.279Z,16.10
2018-03-29T10:12:43.050Z,13.90
2018-03-29T10:15:10.622Z,19.33
2018-03-29T10:17:39.021Z,14.17
2018-03-29T10:20:06.602Z,15.83
2018-03-29T10:22:34.154Z,16.07
2018-03-29T10:25:02.046Z,14.50
2018-03-29T10:27:29.659Z,13.03
2018-03-29T10:29:57.370Z,13.53
2018-03-29T10:32:24.918Z,15.80
2018-03-29T10:34:52.512Z,13.63
2018-03-29T10:37:20.165Z,16.70
2018-03-29T10:39:47.730Z,14.83
2018-03-29T10:42:15.518Z,17.20
2018-03-29T10:44:43.354Z,13.20
2018-03-29T10:47:11.010Z,15.00
2018-03-29T10:49:38.873Z,17.73
2018-03-29T10:52:06.679Z,18.07
2018-03-29T10:54:34.246Z,11.90
2018-03-29T10:57:01.855Z,12.87
2018-03-29T10:59:29.419Z,13.97
2018-03-29T11:01:57.130Z,16.03
2018-03-29T11:04:24.711Z,13.23
2018-03-29T11:06:52.269Z,12.50
2018-03-29T11:09:20.097Z,19.77
2018-03-29T11:11:48.039Z,16.13
2018-03-29T11:14:15.599Z,20.70
2018-03-29T11:16:43.158Z,18.53
2018-03-29T11:19:11.201Z,25.33
2018-03-29T11:21:39.037Z,17.43
2018-03-29T11:24:06.965Z,18.07
2018-03-29T11:26:35.342Z,14.37
2018-03-29T11:29:03.054Z,15.83
2018-03-29T11:31:30.763Z,20.03
2018-03-29T11:33:58.813Z,26.03
2018-03-29T11:36:26.377Z,14.20
2018-03-29T11:38:53.936Z,18.90
2018-03-29T11:41:21.837Z,14.77
2018-03-29T11:43:50.474Z,15.23
2018-03-29T11:46:18.338Z,16.23
2018-03-29T11:48:45.960Z,17.00
2018-03-29T11:51:13.563Z,15.93
2018-03-29T11:53:41.598Z,13.37
2018-03-29T11:56:09.348Z,16.13
2018-03-29T11:58:37.269Z,11.40
2018-03-29T12:01:04.821Z,11.00
2018-03-29T12:03:32.410Z,9.00
2018-03-29T12:06:01.069Z,12.27
2018-03-29T12:08:28.905Z,13.37
2018-03-29T12:10:56.590Z,14.67
2018-03-29T12:13:24.143Z,9.77
2018-03-29T12:15:51.688Z,7.97
2018-03-29T12:18:19.623Z,8.90
2018-03-29T12:20:47.260Z,7.80
2018-03-29T12:23:16.095Z,10.63
2018-03-29T12:25:43.727Z,8.17
2018-03-29T12:28:11.470Z,10.00
2018-03-29T12:30:39.796Z,9.47
2018-03-29T12:33:07.790Z,12.03
2018-03-29T12:35:35.453Z,12.13
2018-03-29T12:38:03.002Z,12.47
2018-03-29T12:40:30.765Z,10.67
2018-03-29T12:42:58.447Z,8.07
2018-03-29T12:45:26.000Z,9.20
2018-03-29T12:47:53.586Z,10.00
2018-03-29T12:50:22.013Z,9.97
2018-03-29T12:52:49.668Z,12.23
2018-03-29T12:55:29.317Z,15.17
2018-03-29T12:58:10.693Z,9.33
2018-03-29T13:00:38.473Z,9.57
2018-03-29T13:03:06.139Z,10.83
2018-03-29T13:05:33.867Z,11.17
2018-03-29T13:08:01.496Z,9.53
2018-03-29T13:10:29.954Z,9.73
2018-03-29T13:12:57.534Z,8.93
2018-03-29T13:15:25.326Z,8.60
2018-03-29T13:17:52.981Z,10.93
2018-03-29T13:20:21.657Z,9.30
2018-03-29T13:22:49.301Z,12.63
2018-03-29T13:25:17.768Z,9.87
2018-03-29T13:27:46.107Z,10.20
2018-03-29T13:30:13.900Z,10.43
2018-03-29T13:32:41.442Z,8.73
2018-03-29T13:35:08.999Z,8.80
2018-03-29T13:37:36.608Z,9.03
2018-03-29T13:40:04.389Z,7.73
2018-03-29T13:42:32.050Z,8.43
2018-03-29T13:44:59.799Z,8.33
2018-03-29T13:47:27.354Z,7.07
2018-03-29T13:49:54.929Z,7.80
2018-03-29T13:52:22.519Z,10.63
2018-03-29T13:54:50.122Z,11.73
2018-03-29T13:57:18.951Z,10.73
2018-03-29T13:59:46.914Z,45.63
2018-03-29T14:02:14.551Z,12.37
2018-03-29T14:04:42.338Z,35.63
2018-03-29T14:07:10.447Z,17.17
2018-03-29T14:09:38.537Z,9.67
2018-03-29T14:12:07.133Z,8.77
2018-03-29T14:14:34.885Z,10.10
2018-03-29T14:17:02.725Z,8.47
2018-03-29T14:19:30.471Z,8.43
2018-03-29T14:21:58.251Z,7.47
2018-03-29T14:24:25.794Z,7.73
2018-03-29T14:26:53.634Z,28.33
2018-03-29T14:29:21.258Z,9.60
2018-03-29T14:31:49.658Z,9.87
2018-03-29T14:34:17.214Z,12.43
2018-03-29T14:36:44.866Z,10.90
2018-03-29T14:39:12.799Z,10.43
2018-03-29T14:41:40.358Z,9.37
2018-03-29T14:44:08.753Z,11.20
2018-03-29T14:46:36.490Z,9.27
2018-03-29T14:49:04.066Z,8.40
2018-03-29T14:51:31.649Z,8.50
2018-03-29T14:53:59.970Z,15.43
2018-03-29T14:56:27.925Z,20.60
2018-03-29T14:58:55.618Z,16.73
2018-03-29T15:01:23.343Z,27.10
2018-03-29T15:03:51.121Z,17.63
2018-03-29T15:06:18.995Z,9.47
2018-03-29T15:08:46.640Z,14.67
2018-03-29T15:11:14.196Z,8.70
2018-03-29T15:13:41.823Z,7.37
2018-03-29T15:16:10.455Z,8.67
2018-03-29T15:18:38.143Z,9.73
2018-03-29T15:21:07.028Z,15.23
2018-03-29T15:23:34.602Z,12.33
2018-03-29T15:26:02.184Z,16.80
2018-03-29T15:28:29.868Z,21.97
2018-03-29T15:30:57.438Z,12.40
2018-03-29T15:33:25.027Z,10.57
2018-03-29T15:35:53.257Z,24.03
2018-03-29T15:38:21.011Z,41.37
2018-03-29T15:40:49.305Z,38.73
2018-03-29T15:43:17.466Z,45.77
2018-03-29T15:45:45.042Z,72.80
2018-03-29T15:48:12.735Z,34.93
2018-03-29T15:50:40.342Z,56.93
2018-03-29T15:53:07.924Z,53.00
2018-03-29T15:55:35.497Z,27.90
2018-03-29T15:58:03.193Z,32.47
2018-03-29T16:00:31.600Z,29.90
2018-03-29T16:02:59.266Z,30.00
2018-03-29T16:05:27.011Z,34.30
2018-03-29T16:07:55.323Z,79.20
2018-03-29T16:10:22.889Z,93.97
2018-03-29T16:12:50.855Z,111.43
2018-03-29T16:15:18.443Z,489.13
2018-03-29T16:17:45.995Z,290.63
2018-03-29T16:20:15.094Z,356.23
2018-03-29T16:22:42.876Z,120.47
2018-03-29T16:25:11.541Z,105.23
2018-03-29T16:27:40.060Z,86.37
2018-03-29T16:30:07.610Z,86.63
2018-03-29T16:32:35.161Z,97.33
2018-03-29T16:35:03.592Z,96.87
2018-03-29T16:37:31.456Z,70.57
2018-03-29T16:39:59.323Z,62.87
2018-03-29T16:42:26.946Z,51.00
2018-03-29T16:44:54.501Z,59.00
2018-03-29T16:47:22.106Z,58.57
2018-03-29T16:49:50.113Z,54.93
2018-03-29T16:52:17.916Z,65.03
2018-03-29T16:54:45.655Z,54.60
2018-03-29T16:57:13.265Z,49.40
2018-03-29T16:59:40.821Z,64.30
2018-03-29T17:02:09.851Z,57.67
2018-03-29T17:04:37.586Z,89.53
2018-03-29T17:07:05.279Z,122.90
2018-03-29T17:09:33.640Z,95.93
2018-03-29T17:12:01.630Z,111.90
2018-03-29T17:14:29.309Z,115.10
2018-03-29T17:16:56.906Z,92.10
2018-03-29T17:19:24.619Z,106.80
2018-03-29T17:21:52.388Z,102.97
2018-03-29T17:24:19.956Z,107.40
2018-03-29T17:26:47.790Z,120.40
2018-03-29T17:29:15.387Z,101.47
2018-03-29T17:31:43.238Z,164.90
2018-03-29T17:34:10.826Z,161.10
2018-03-29T17:36:38.630Z,181.00
2018-03-29T17:39:06.954Z,192.93
2018-03-29T17:41:34.918Z,214.00
2018-03-29T17:44:02.490Z,228.67
2018-03-29T17:46:30.072Z,194.67
2018-03-29T17:48:57.792Z,165.53
2018-03-29T17:51:25.478Z,164.13
2018-03-29T17:53:53.191Z,182.13
2018-03-29T17:56:21.126Z,198.87
2018-03-29T17:58:48.703Z,225.90
2018-03-29T18:01:16.454Z,254.27
2018-03-29T18:03:44.554Z,267.23
2018-03-29T18:06:12.140Z,224.90
2018-03-29T18:08:40.047Z,242.60
2018-03-29T18:11:07.853Z,232.23
2018-03-29T18:13:35.427Z,245.73
2018-03-29T18:16:03.192Z,252.47
2018-03-29T18:18:30.874Z,237.03
2018-03-29T18:20:58.530Z,236.93
2018-03-29T18:23:26.216Z,208.33
2018-03-29T18:25:53.838Z,209.23
2018-03-29T18:28:21.511Z,190.67
2018-03-29T18:30:49.157Z,181.60
2018-03-29T18:33:17.536Z,185.23
2018-03-29T18:35:45.378Z,181.63
2018-03-29T18:38:13.059Z,169.23
2018-03-29T18:40:40.716Z,141.13
2018-03-29T18:43:08.318Z,157.50
2018-03-29T18:45:36.045Z,125.47
2018-03-29T18:48:04.012Z,171.90
2018-03-29T18:50:32.072Z,165.27
2018-03-29T18:53:01.177Z,158.77
2018-03-29T18:55:29.203Z,172.80
2018-03-29T18:57:57.305Z,190.73
2018-03-29T19:00:25.187Z,200.00
2018-03-29T19:02:52.985Z,205.40
2018-03-29T19:05:21.036Z,188.10
2018-03-29T19:07:48.970Z,200.57
2018-03-29T19:10:16.625Z,204.97
2018-03-29T19:12:44.366Z,181.37
2018-03-29T19:15:12.993Z,185.13
2018-03-29T19:17:40.686Z,177.37
2018-03-29T19:20:08.261Z,152.17
2018-03-29T19:22:35.843Z,157.23
2018-03-29T19:25:03.488Z,140.13
2018-03-29T19:27:32.117Z,133.10
2018-03-29T19:29:59.686Z,121.40
2018-03-29T19:32:27.311Z,113.97
2018-03-29T19:34:54.874Z,98.90
2018-03-29T19:37:22.440Z,104.73
2018-03-29T19:39:50.322Z,104.47
2018-03-29T19:42:18.054Z,106.43
2018-03-29T19:44:45.618Z,113.93
2018-03-29T19:47:13.240Z,126.13
2018-03-29T19:49:40.843Z,119.20
2018-03-29T19:52:08.411Z,99.20
2018-03-29T19:54:36.019Z,111.23
2018-03-29T19:57:04.487Z,132.57
2018-03-29T19:59:32.038Z,132.07
2018-03-29T20:01:59.625Z,131.13
2018-03-29T20:04:27.970Z,111.57
2018-03-29T20:06:55.615Z,109.00
2018-03-29T20:09:23.541Z,139.07
2018-03-29T20:11:51.138Z,146.03
2018-03-29T20:14:18.899Z,174.17
2018-03-29T20:16:46.593Z,213.73
2018-03-29T20:19:14.221Z,170.50
2018-03-29T20:21:41.799Z,148.93
2018-03-29T20:24:09.543Z,137.87
2018-03-29T20:26:37.200Z,145.83
2018-03-29T20:29:04.973Z,133.00
2018-03-29T20:31:32.581Z,114.83
2018-03-29T20:34:00.931Z,107.70
2018-03-29T20:36:28.712Z,100.07
2018-03-29T20:38:57.112Z,97.37
2018-03-29T20:41:24.669Z,83.97
2018-03-29T20:43:52.469Z,81.40
2018-03-29T20:46:20.061Z,82.63
2018-03-29T20:48:47.630Z,86.53
2018-03-29T20:51:15.953Z,78.23
2018-03-29T20:53:43.930Z,72.47
2018-03-29T20:56:11.506Z,79.77
2018-03-29T20:58:39.245Z,81.07
2018-03-29T21:01:06.842Z,70.00
2018-03-29T21:03:34.416Z,81.00
2018-03-29T21:06:03.252Z,90.37
2018-03-29T21:08:30.957Z,75.47
2018-03-29T21:10:58.597Z,52.93
2018-03-29T21:13:26.189Z,48.97
2018-03-29T21:15:53.791Z,52.77
2018-03-29T21:18:21.966Z,53.83
2018-03-29T21:20:49.718Z,55.87
2018-03-29T21:23:17.510Z,62.33
2018-03-29T21:25:45.137Z,66.73
2018-03-29T21:28:12.697Z,68.50
2018-03-29T21:30:40.289Z,70.20
2018-03-29T21:33:08.107Z,75.80
2018-03-29T21:35:35.678Z,78.60
2018-03-29T21:38:03.456Z,64.03
2018-03-29T21:40:31.179Z,66.63
2018-03-29T21:42:59.514Z,76.70
2018-03-29T21:45:27.130Z,70.90
2018-03-29T21:47:54.680Z,66.43
2018-03-29T21:50:22.225Z,88.77
2018-03-29T21:52:50.576Z,94.80
2018-03-29T21:55:18.137Z,77.53
2018-03-29T21:57:45.719Z,77.37
2018-03-29T22:00:13.330Z,86.57
2018-03-29T22:02:41.052Z,93.43
2018-03-29T22:05:08.617Z,84.30
2018-03-29T22:07:36.613Z,98.03
2018-03-29T22:10:04.654Z,98.77
2018-03-29T22:12:32.222Z,103.40
2018-03-29T22:15:00.092Z,109.57
2018-03-29T22:17:27.647Z,141.20
2018-03-29T22:19:55.201Z,113.27
2018-03-29T22:22:23.026Z,75.03
2018-03-29T22:24:50.715Z,66.13
2018-03-29T22:27:18.287Z,65.10
2018-03-29T22:29:45.879Z,70.43
2018-03-29T22:32:13.485Z,68.07
2018-03-29T22:34:41.998Z,62.57
2018-03-29T22:37:09.918Z,62.07
2018-03-29T22:39:37.473Z,66.30
2018-03-29T22:42:05.927Z,66.60
2018-03-29T22:44:33.515Z,67.17
2018-03-29T22:47:01.058Z,67.93
2018-03-29T22:49:28.666Z,67.67
2018-03-29T22:51:56.259Z,64.47
2018-03-29T22:54:23.807Z,62.80
2018-03-29T22:56:51.363Z,68.83
2018-03-29T22:59:19.370Z,61.93
2018-03-29T23:01:46.919Z,80.57
2018-03-29T23:04:14.468Z,78.93
2018-03-29T23:06:42.050Z,77.53
2018-03-29T23:09:09.594Z,70.77
2018-03-29T23:11:37.265Z,68.87
2018-03-29T23:14:04.821Z,65.77
2018-03-29T23:16:32.366Z,61.87
2018-03-29T23:18:59.958Z,53.90
2018-03-29T23:21:27.561Z,52.33
2018-03-29T23:23:55.545Z,53.33
2018-03-29T23:26:23.094Z,52.57
2018-03-29T23:28:50.735Z,68.20
2018-03-29T23:31:18.278Z,61.03
2018-03-29T23:33:45.997Z,59.83
2018-03-29T23:36:13.582Z,55.67
2018-03-29T23:38:41.310Z,50.17
2018-03-29T23:41:09.670Z,49.07
2018-03-29T23:43:37.494Z,49.83
2018-03-29T23:46:05.938Z,58.17
2018-03-29T23:48:33.545Z,71.57
2018-03-29T23:51:01.128Z,102.70
2018-03-29T23:53:29.074Z,114.87
2018-03-29T23:55:56.618Z,80.27
2018-03-29T23:58:25.110Z,44.60
